Time;durP1;ratioP1;P1;durP2;ratioP2;P2;SDS_P1;SDS_P2;PMS_P1;PMS_P2;Temp;Humidity;BMP_temperature;BMP_pressure;BME280_temperature;BME280_humidity;BME280_pressure;Samples;Min_cycle;Max_cycle;Signal;HPM_P1;HPM_P2
2022/06/19 00:01:10;;;;;;;9.55;1.10;;;;;;;;;;4978841;28;20161;-68
2022/06/19 00:03:39;;;;;;;6.43;1.38;;;;;;;;;;4992369;28;20061;-68
2022/06/19 00:06:08;;;;;;;8.65;1.30;;;;;;;;;;4985078;28;20078;-68
2022/06/19 00:08:34;;;;;;;19.20;1.63;;;;;;;;;;4989203;28;20066;-67
2022/06/19 00:11:02;;;;;;;7.13;1.73;;;;;;;;;;4984848;28;20046;-68
2022/06/19 00:13:29;;;;;;;6.40;1.20;;;;;;;;;;4972996;28;20047;-68
2022/06/19 00:15:56;;;;;;;8.70;1.20;;;;;;;;;;4971629;28;20046;-67
2022/06/19 00:18:23;;;;;;;4.60;1.27;;;;;;;;;;4992988;28;20052;-68
2022/06/19 00:20:51;;;;;;;3.95;1.10;;;;;;;;;;4992473;28;20050;-68
2022/06/19 00:23:19;;;;;;;4.45;1.20;;;;;;;;;;4987770;28;20054;-67
2022/06/19 00:25:45;;;;;;;5.60;1.02;;;;;;;;;;4989452;28;20058;-67
2022/06/19 00:28:12;;;;;;;7.40;1.45;;;;;;;;;;4989038;28;20065;-67
2022/06/19 00:30:44;;;;;;;18.63;1.30;;;;;;;;;;4992256;28;20045;-68
2022/06/19 00:33:11;;;;;;;4.05;0.93;;;;;;;;;;4986393;28;20054;-67
2022/06/19 00:35:37;;;;;;;7.35;1.20;;;;;;;;;;4989363;28;20054;-68
2022/06/19 00:38:04;;;;;;;6.43;1.05;;;;;;;;;;4979993;28;20054;-68
2022/06/19 00:40:33;;;;;;;4.57;1.05;;;;;;;;;;4973128;28;20060;-67
2022/06/19 00:42:59;;;;;;;3.03;1.00;;;;;;;;;;4971058;28;20049;-67
2022/06/19 00:45:31;;;;;;;5.38;0.93;;;;;;;;;;4995230;28;20061;-68
2022/06/19 00:47:58;;;;;;;9.38;1.02;;;;;;;;;;4979442;28;20099;-67
2022/06/19 00:50:34;;;;;;;8.45;1.20;;;;;;;;;;4992006;28;20058;-67
2022/06/19 00:53:02;;;;;;;4.13;1.13;;;;;;;;;;4982809;28;20050;-67
2022/06/19 00:55:30;;;;;;;6.53;1.30;;;;;;;;;;4985356;28;20050;-68
2022/06/19 00:58:01;;;;;;;6.13;1.27;;;;;;;;;;4989455;28;20048;-67
2022/06/19 01:00:29;;;;;;;4.82;1.17;;;;;;;;;;4993360;28;20046;-67
2022/06/19 01:02:56;;;;;;;;;;;;;;;;;;4989083;28;20041;-67
2022/06/19 01:05:23;;;;;;;5.22;1.20;;;;;;;;;;4992460;28;20027;-67
2022/06/19 01:07:50;;;;;;;11.33;0.87;;;;;;;;;;4990152;28;20058;-67
2022/06/19 01:10:21;;;;;;;6.93;1.08;;;;;;;;;;4989705;28;20062;-67
2022/06/19 01:12:48;;;;;;;9.10;1.10;;;;;;;;;;4992354;28;20042;-67
2022/06/19 01:15:17;;;;;;;5.63;1.00;;;;;;;;;;4988980;28;20057;-67
2022/06/19 01:17:46;;;;;;;5.82;1.13;;;;;;;;;;4992053;28;20057;-68
2022/06/19 01:20:14;;;;;;;2.90;1.00;;;;;;;;;;4988703;28;20131;-67
2022/06/19 01:22:45;;;;;;;7.10;1.17;;;;;;;;;;4980858;28;20058;-67
2022/06/19 01:25:14;;;;;;;9.65;1.00;;;;;;;;;;4988923;28;20304;-67
2022/06/19 01:30:27;;;;;;;6.97;1.00;;;;;;;;;;4988557;28;20054;-67
2022/06/19 01:32:56;;;;;;;8.02;1.20;;;;;;;;;;4993560;28;20064;-67
2022/06/19 01:35:23;;;;;;;4.55;1.13;;;;;;;;;;4989747;28;20058;-67
2022/06/19 01:37:50;;;;;;;5.43;0.95;;;;;;;;;;4990512;28;20058;-67
2022/06/19 01:40:29;;;;;;;7.07;1.30;;;;;;;;;;4989154;28;20058;-67
2022/06/19 01:42:55;;;;;;;;;;;;;;;;;;4992592;28;20074;-67
2022/06/19 01:45:22;;;;;;;6.93;1.13;;;;;;;;;;4992075;28;19957;-67
2022/06/19 01:47:49;;;;;;;4.00;1.10;;;;;;;;;;4989806;28;20054;-67
2022/06/19 01:50:18;;;;;;;8.68;1.52;;;;;;;;;;4990841;28;20080;-67
2022/06/19 01:52:46;;;;;;;7.30;1.45;;;;;;;;;;4991118;28;20057;-67
2022/06/19 01:55:14;;;;;;;4.82;0.93;;;;;;;;;;4985049;28;20061;-67
2022/06/19 01:57:44;;;;;;;8.25;0.90;;;;;;;;;;4979532;28;20050;-67
2022/06/19 02:00:14;;;;;;;6.45;0.93;;;;;;;;;;4980106;28;20050;-67
2022/06/19 02:02:43;;;;;;;6.68;1.10;;;;;;;;;;4970734;28;20058;-67
2022/06/19 02:05:10;;;;;;;6.50;1.20;;;;;;;;;;4975545;28;20050;-67
2022/06/19 02:07:37;;;;;;;7.57;1.13;;;;;;;;;;4971910;28;20073;-67
2022/06/19 02:10:06;;;;;;;7.78;1.05;;;;;;;;;;4976049;28;20050;-67
2022/06/19 02:12:33;;;;;;;4.60;0.90;;;;;;;;;;4984222;28;20097;-67
2022/06/19 02:15:02;;;;;;;6.78;1.00;;;;;;;;;;4991913;28;20062;-66
2022/06/19 02:17:32;;;;;;;5.93;1.10;;;;;;;;;;4977698;28;20053;-67
2022/06/19 02:20:02;;;;;;;3.70;1.00;;;;;;;;;;4975633;28;20057;-67
2022/06/19 02:22:29;;;;;;;7.10;0.93;;;;;;;;;;4973231;28;20057;-67
2022/06/19 02:24:55;;;;;;;8.80;1.15;;;;;;;;;;4975352;28;20050;-66
2022/06/19 02:27:22;;;;;;;7.28;0.95;;;;;;;;;;4972368;28;20054;-67
2022/06/19 02:29:56;;;;;;;15.82;2.45;;;;;;;;;;4975702;28;20065;-67
2022/06/19 02:32:27;;;;;;;4.82;1.02;;;;;;;;;;4977055;28;20057;-67
2022/06/19 02:34:54;;;;;;;6.35;1.08;;;;;;;;;;4991465;28;20070;-66
2022/06/19 02:37:21;;;;;;;7.10;1.25;;;;;;;;;;4985395;28;20046;-67
2022/06/19 02:39:53;;;;;;;3.67;0.82;;;;;;;;;;4975245;28;20161;-67
2022/06/19 02:42:29;;;;;;;11.13;1.23;;;;;;;;;;4972586;28;20155;-67
2022/06/19 02:44:57;;;;;;;4.30;1.50;;;;;;;;;;4973947;28;20062;-67
2022/06/19 02:47:26;;;;;;;10.75;1.50;;;;;;;;;;4971997;28;20042;-67
2022/06/19 02:49:53;;;;;;;8.70;1.10;;;;;;;;;;4975583;28;20110;-66
2022/06/19 02:52:29;;;;;;;6.65;0.90;;;;;;;;;;4972244;28;20050;-66
2022/06/19 02:54:56;;;;;;;9.80;1.05;;;;;;;;;;4970074;28;20062;-67
2022/06/19 02:57:23;;;;;;;5.97;0.90;;;;;;;;;;4953627;28;20090;-67
2022/06/19 02:59:50;;;;;;;4.80;1.10;;;;;;;;;;4954119;28;20153;-67
2022/06/19 03:02:17;;;;;;;9.15;1.35;;;;;;;;;;4969848;28;20058;-67
2022/06/19 03:04:48;;;;;;;2.33;0.63;;;;;;;;;;4953525;28;20117;-67
2022/06/19 03:07:14;;;;;;;9.07;0.95;;;;;;;;;;4953690;28;20065;-66
2022/06/19 03:09:41;;;;;;;4.25;0.98;;;;;;;;;;4953176;28;20055;-66
2022/06/19 03:12:11;;;;;;;5.50;1.00;;;;;;;;;;4968832;28;20066;-67
2022/06/19 03:14:38;;;;;;;6.97;1.17;;;;;;;;;;4952840;28;20058;-67
2022/06/19 03:17:04;;;;;;;3.60;0.77;;;;;;;;;;4952715;28;20065;-67
2022/06/19 03:19:31;;;;;;;6.40;1.10;;;;;;;;;;4968856;28;20086;-67
2022/06/19 03:21:59;;;;;;;6.88;1.20;;;;;;;;;;4969065;28;20086;-67
2022/06/19 03:24:27;;;;;;;2.67;0.90;;;;;;;;;;4952720;28;20051;-66
2022/06/19 03:26:55;;;;;;;4.03;1.00;;;;;;;;;;4952946;28;20051;-67
2022/06/19 03:29:22;;;;;;;6.55;0.90;;;;;;;;;;4952785;28;20122;-66
2022/06/19 03:31:49;;;;;;;4.53;0.90;;;;;;;;;;4953115;28;20166;-67
2022/06/19 03:34:16;;;;;;;6.82;1.00;;;;;;;;;;4952315;28;20054;-67
2022/06/19 03:36:42;;;;;;;4.10;0.75;;;;;;;;;;4952204;28;20082;-67
2022/06/19 03:39:11;;;;;;;4.93;0.90;;;;;;;;;;4952716;28;20062;-67
2022/06/19 03:41:37;;;;;;;3.95;0.70;;;;;;;;;;4968698;28;20082;-67
2022/06/19 03:44:04;;;;;;;6.15;1.00;;;;;;;;;;4968247;28;20050;-67
2022/06/19 03:46:31;;;;;;;9.27;0.90;;;;;;;;;;4968742;28;20047;-68
2022/06/19 03:48:58;;;;;;;9.23;1.00;;;;;;;;;;4952325;28;20062;-67
2022/06/19 03:51:25;;;;;;;5.32;0.82;;;;;;;;;;4950994;28;20050;-67
2022/06/19 03:53:52;;;;;;;5.88;1.10;;;;;;;;;;4951966;28;20050;-67
2022/06/19 03:56:23;;;;;;;5.22;0.93;;;;;;;;;;4987156;28;20073;-67
2022/06/19 03:58:49;;;;;;;5.05;1.08;;;;;;;;;;4971487;28;20117;-67
2022/06/19 04:03:51;;;;;;;7.07;0.95;;;;;;;;;;4947101;23;20059;-67
2022/06/19 04:06:19;;;;;;;2.60;0.80;;;;;;;;;;4916120;29;20056;-67
2022/06/19 04:08:46;;;;;;;4.03;0.63;;;;;;;;;;4913821;29;20047;-67
2022/06/19 04:11:13;;;;;;;7.28;1.02;;;;;;;;;;4925354;29;20087;-67
2022/06/19 04:13:41;;;;;;;8.23;0.90;;;;;;;;;;4933598;29;20047;-67
2022/06/19 04:16:08;;;;;;;4.13;0.73;;;;;;;;;;4929364;29;20067;-67
2022/06/19 04:18:35;;;;;;;6.27;1.00;;;;;;;;;;4930637;29;20063;-67
2022/06/19 04:21:04;;;;;;;4.25;0.75;;;;;;;;;;4932698;29;20142;-67
2022/06/19 04:23:30;;;;;;;4.43;0.98;;;;;;;;;;4923828;29;20051;-67
2022/06/19 04:25:57;;;;;;;8.80;1.23;;;;;;;;;;4932365;29;20082;-67
2022/06/19 04:28:24;;;;;;;11.18;0.80;;;;;;;;;;4926589;29;20078;-68
2022/06/19 04:30:53;;;;;;;8.48;1.05;;;;;;;;;;4932879;29;20126;-67
2022/06/19 04:33:21;;;;;;;4.72;0.88;;;;;;;;;;4925722;29;20051;-67
2022/06/19 04:35:48;;;;;;;5.18;0.95;;;;;;;;;;4915128;29;20062;-66
2022/06/19 04:38:15;;;;;;;9.15;1.17;;;;;;;;;;4927699;29;20061;-66
2022/06/19 04:40:42;;;;;;;4.40;0.80;;;;;;;;;;4916362;29;20047;-67
2022/06/19 04:43:11;;;;;;;3.85;0.85;;;;;;;;;;4917879;29;20059;-66
2022/06/19 04:45:38;;;;;;;2.53;0.65;;;;;;;;;;4915206;29;20055;-66
2022/06/19 04:48:06;;;;;;;4.55;1.08;;;;;;;;;;4918141;29;20067;-66
2022/06/19 04:50:33;;;;;;;2.90;0.52;;;;;;;;;;4914771;29;20055;-66
2022/06/19 04:52:59;;;;;;;3.33;0.70;;;;;;;;;;4917610;29;20043;-66
2022/06/19 04:55:26;;;;;;;7.00;0.80;;;;;;;;;;4915854;29;20062;-66
2022/06/19 04:57:52;;;;;;;4.82;0.95;;;;;;;;;;4934938;29;20055;-66
2022/06/19 05:00:20;;;;;;;10.98;0.82;;;;;;;;;;4936678;29;20047;-66
2022/06/19 05:02:48;;;;;;;3.80;1.10;;;;;;;;;;4924494;29;20161;-66
2022/06/19 05:05:17;;;;;;;2.50;0.60;;;;;;;;;;4929736;29;20334;-66
2022/06/19 05:07:44;;;;;;;2.33;0.73;;;;;;;;;;4920884;29;20102;-66
2022/06/19 05:10:11;;;;;;;2.67;0.75;;;;;;;;;;4933433;29;20098;-66
2022/06/19 05:12:38;;;;;;;6.00;0.85;;;;;;;;;;4922822;29;20056;-66
2022/06/19 05:15:06;;;;;;;6.40;0.80;;;;;;;;;;4932268;29;20122;-66
2022/06/19 05:17:33;;;;;;;1.80;0.70;;;;;;;;;;4923424;29;20055;-66
2022/06/19 05:20:01;;;;;;;5.25;0.90;;;;;;;;;;4929304;29;20142;-66
2022/06/19 05:22:28;;;;;;;4.63;1.00;;;;;;;;;;4928112;29;20066;-66
2022/06/19 05:24:55;;;;;;;2.80;0.60;;;;;;;;;;4922966;29;20295;-66
2022/06/19 05:27:22;;;;;;;5.43;0.90;;;;;;;;;;4929801;29;20056;-66
2022/06/19 05:29:49;;;;;;;5.65;0.90;;;;;;;;;;4923284;29;20056;-66
2022/06/19 05:32:15;;;;;;;5.60;0.77;;;;;;;;;;4947054;29;20066;-66
2022/06/19 05:34:42;;;;;;;3.15;0.70;;;;;;;;;;4922493;29;20052;-66
2022/06/19 05:37:08;;;;;;;2.67;0.80;;;;;;;;;;4929013;29;20059;-66
2022/06/19 05:39:36;;;;;;;2.65;1.00;;;;;;;;;;4929918;29;20059;-66
2022/06/19 05:42:03;;;;;;;5.82;0.55;;;;;;;;;;4926634;29;20063;-66
2022/06/19 05:44:30;;;;;;;2.03;0.63;;;;;;;;;;4929663;29;20059;-66
2022/06/19 05:46:57;;;;;;;5.25;0.82;;;;;;;;;;4923568;29;20066;-66
2022/06/19 05:49:23;;;;;;;2.28;0.77;;;;;;;;;;4927063;29;20066;-66
2022/06/19 05:51:50;;;;;;;2.05;0.50;;;;;;;;;;4921331;29;20130;-66
2022/06/19 05:54:16;;;;;;;7.65;0.73;;;;;;;;;;4930188;29;20060;-66
2022/06/19 05:56:44;;;;;;;2.45;0.57;;;;;;;;;;4925113;29;20095;-66
2022/06/19 05:59:11;;;;;;;2.53;0.63;;;;;;;;;;4925882;29;20055;-66
2022/06/19 06:01:38;;;;;;;7.43;0.70;;;;;;;;;;4926669;29;20055;-66
2022/06/19 06:04:04;;;;;;;3.97;0.60;;;;;;;;;;4921700;29;20058;-66
2022/06/19 06:06:34;;;;;;;4.95;0.80;;;;;;;;;;4930269;29;20075;-66
2022/06/19 06:09:02;;;;;;;7.68;0.80;;;;;;;;;;4924625;29;20055;-66
2022/06/19 06:11:29;;;;;;;6.90;0.87;;;;;;;;;;4929585;29;20059;-66
2022/06/19 06:13:57;;;;;;;3.05;0.60;;;;;;;;;;4919906;29;20063;-66
2022/06/19 06:16:24;;;;;;;3.97;0.75;;;;;;;;;;4928803;29;20154;-66
2022/06/19 06:18:52;;;;;;;;;;;;;;;;;;4929250;28;20147;-66
2022/06/19 06:21:21;;;;;;;2.40;0.52;;;;;;;;;;4915473;29;19940;-66
2022/06/19 06:23:47;;;;;;;2.83;0.80;;;;;;;;;;4927238;29;20051;-66
2022/06/19 06:26:15;;;;;;;5.50;0.93;;;;;;;;;;4926956;29;20056;-66
2022/06/19 06:28:43;;;;;;;2.10;0.47;;;;;;;;;;4925434;29;20063;-66
2022/06/19 06:31:11;;;;;;;4.50;0.75;;;;;;;;;;4924186;29;20063;-66
2022/06/19 06:33:37;;;;;;;;;;;;;;;;;;4930980;29;20058;-66
2022/06/19 06:36:05;;;;;;;5.85;1.17;;;;;;;;;;4924357;29;19933;-66
2022/06/19 06:38:32;;;;;;;5.55;1.08;;;;;;;;;;4946876;29;20054;-66
2022/06/19 06:40:59;;;;;;;5.32;0.65;;;;;;;;;;4924196;29;20059;-66
2022/06/19 06:43:26;;;;;;;4.00;0.82;;;;;;;;;;4926417;29;20111;-67
2022/06/19 06:45:53;;;;;;;9.25;0.85;;;;;;;;;;4923995;29;20055;-66
2022/06/19 06:48:21;;;;;;;3.92;0.70;;;;;;;;;;4928720;29;20107;-66
2022/06/19 06:50:48;;;;;;;9.98;1.48;;;;;;;;;;4925010;29;20106;-66
2022/06/19 06:53:15;;;;;;;2.83;0.90;;;;;;;;;;4928412;29;20066;-66
2022/06/19 06:55:42;;;;;;;8.93;1.50;;;;;;;;;;4921982;29;20058;-66
2022/06/19 06:58:08;;;;;;;4.95;1.20;;;;;;;;;;4928879;28;20051;-67
2022/06/19 07:00:36;;;;;;;6.43;1.30;;;;;;;;;;4922458;28;20067;-66
2022/06/19 07:03:02;;;;;;;7.55;1.00;;;;;;;;;;4925412;29;20055;-65
2022/06/19 07:05:31;;;;;;;6.75;0.95;;;;;;;;;;4930268;29;20062;-66
2022/06/19 07:07:58;;;;;;;7.82;1.00;;;;;;;;;;4921972;29;20059;-63
2022/06/19 07:10:24;;;;;;;9.52;1.45;;;;;;;;;;4929987;29;20070;-63
2022/06/19 07:12:51;;;;;;;14.50;1.33;;;;;;;;;;4924825;29;20048;-65
2022/06/19 07:15:18;;;;;;;7.63;1.20;;;;;;;;;;4929166;29;20065;-64
2022/06/19 07:17:44;;;;;;;9.07;1.42;;;;;;;;;;4922888;29;20059;-65
2022/06/19 07:20:11;;;;;;;5.32;1.33;;;;;;;;;;4930184;29;20055;-64
2022/06/19 07:22:39;;;;;;;8.85;1.35;;;;;;;;;;4922995;29;20055;-65
2022/06/19 07:25:06;;;;;;;6.43;1.23;;;;;;;;;;4928505;29;20059;-64
2022/06/19 07:27:33;;;;;;;5.72;0.90;;;;;;;;;;4923380;29;20078;-64
2022/06/19 07:30:00;;;;;;;2.30;0.82;;;;;;;;;;4927552;29;20059;-64
2022/06/19 07:32:27;;;;;;;5.43;0.93;;;;;;;;;;4920874;29;20075;-64
2022/06/19 07:34:53;;;;;;;4.65;1.05;;;;;;;;;;4927325;29;20139;-64
2022/06/19 07:37:20;;;;;;;5.88;1.02;;;;;;;;;;4924470;29;20035;-65
2022/06/19 07:39:52;;;;;;;4.63;0.85;;;;;;;;;;4930006;29;20058;-63
2022/06/19 07:42:18;;;;;;;4.72;0.95;;;;;;;;;;4924214;28;20040;-64
2022/06/19 07:44:45;;;;;;;5.95;1.10;;;;;;;;;;4927970;29;20051;-65
2022/06/19 07:50:13;;;;;;;6.80;1.40;;;;;;;;;;4930496;29;20091;-62
2022/06/19 07:52:42;;;;;;;7.65;1.15;;;;;;;;;;4921130;29;20111;-66
2022/06/19 07:55:11;;;;;;;5.43;1.00;;;;;;;;;;4927059;29;20058;-64
2022/06/19 07:57:38;;;;;;;5.68;1.40;;;;;;;;;;4931302;29;20059;-63
2022/06/19 08:00:08;;;;;;;8.32;1.13;;;;;;;;;;4922665;29;20142;-64
2022/06/19 08:02:34;;;;;;;9.55;1.25;;;;;;;;;;4920796;29;20067;-66
2022/06/19 08:05:01;;;;;;;5.45;1.00;;;;;;;;;;4923783;29;20070;-67
2022/06/19 08:07:28;;;;;;;8.95;1.27;;;;;;;;;;4928361;29;20047;-65
2022/06/19 08:09:55;;;;;;;7.85;1.17;;;;;;;;;;4922046;29;20123;-67
2022/06/19 08:12:23;;;;;;;4.65;0.93;;;;;;;;;;4929857;29;20051;-66
2022/06/19 08:14:50;;;;;;;7.80;1.38;;;;;;;;;;4924309;29;20058;-63
2022/06/19 08:17:16;;;;;;;3.53;0.82;;;;;;;;;;4929648;29;20066;-67
2022/06/19 08:19:43;;;;;;;12.00;1.52;;;;;;;;;;4924082;29;20115;-65
2022/06/19 08:22:10;;;;;;;6.82;1.25;;;;;;;;;;4929340;29;20055;-68
2022/06/19 08:24:36;;;;;;;4.07;1.00;;;;;;;;;;4922288;29;20086;-65
2022/06/19 08:27:03;;;;;;;6.78;0.98;;;;;;;;;;4925304;29;20055;-66
2022/06/19 08:29:32;;;;;;;4.53;1.00;;;;;;;;;;4921538;29;20162;-68
2022/06/19 08:31:58;;;;;;;7.80;1.10;;;;;;;;;;4929069;29;20074;-63
2022/06/19 08:34:26;;;;;;;3.63;0.80;;;;;;;;;;4904427;29;20204;-64
2022/06/19 08:36:53;;;;;;;9.80;1.48;;;;;;;;;;4928326;29;20115;-66
2022/06/19 08:39:20;;;;;;;5.13;0.88;;;;;;;;;;4925623;29;20051;-63
2022/06/19 08:42:04;;;;;;;5.97;1.27;;;;;;;;;;4926529;29;20095;-66
2022/06/19 08:44:46;;;;;;;2.90;1.08;;;;;;;;;;4923739;29;20070;-64
2022/06/19 08:47:17;;;;;;;5.13;1.33;;;;;;;;;;4931983;29;20059;-64
2022/06/19 08:49:54;;;;;;;4.35;0.90;;;;;;;;;;4924452;29;20133;-65
2022/06/19 08:52:27;;;;;;;7.60;1.10;;;;;;;;;;4926269;29;20052;-66
2022/06/19 08:55:02;;;;;;;5.45;0.82;;;;;;;;;;4927647;29;20060;-64
2022/06/19 08:57:34;;;;;;;4.95;0.70;;;;;;;;;;4928096;29;20059;-66
2022/06/19 09:00:06;;;;;;;5.95;0.95;;;;;;;;;;4927241;29;20125;-65
2022/06/19 09:02:37;;;;;;;4.85;0.90;;;;;;;;;;4922390;29;20051;-67
2022/06/19 09:08:00;;;;;;;6.43;0.93;;;;;;;;;;4927016;29;20062;-66
2022/06/19 09:10:32;;;;;;;4.82;0.80;;;;;;;;;;4927054;29;20094;-64
2022/06/19 09:13:07;;;;;;;3.03;0.82;;;;;;;;;;4926750;29;20047;-64
2022/06/19 09:15:38;;;;;;;8.63;0.90;;;;;;;;;;4926344;29;20119;-64
2022/06/19 09:18:06;;;;;;;5.68;1.10;;;;;;;;;;4921525;29;20059;-66
2022/06/19 09:20:40;;;;;;;6.78;1.13;;;;;;;;;;4929273;29;20066;-66
2022/06/19 09:23:25;;;;;;;9.23;1.13;;;;;;;;;;4924665;29;20134;-64
2022/06/19 09:25:54;;;;;;;7.15;0.70;;;;;;;;;;4928974;29;20143;-64
2022/06/19 09:28:25;;;;;;;4.20;0.90;;;;;;;;;;4926031;29;20063;-65
2022/06/19 09:30:55;;;;;;;5.57;1.05;;;;;;;;;;4930871;29;20067;-67
2022/06/19 09:33:26;;;;;;;4.07;0.88;;;;;;;;;;4923692;29;20109;-64
2022/06/19 09:35:56;;;;;;;5.63;1.02;;;;;;;;;;4932213;29;20039;-64
2022/06/19 09:38:26;;;;;;;5.53;1.25;;;;;;;;;;4926319;29;20051;-64
2022/06/19 09:40:54;;;;;;;6.32;1.02;;;;;;;;;;4931918;29;20051;-64
2022/06/19 09:43:25;;;;;;;5.50;0.90;;;;;;;;;;4926345;29;20067;-65
2022/06/19 09:45:55;;;;;;;11.07;1.08;;;;;;;;;;4926950;29;20059;-64
2022/06/19 09:48:24;;;;;;;6.60;0.93;;;;;;;;;;4926021;29;20058;-66
2022/06/19 09:50:52;;;;;;;13.32;1.60;;;;;;;;;;4930691;29;20067;-66
2022/06/19 09:53:21;;;;;;;7.93;1.40;;;;;;;;;;4924642;29;20062;-65
2022/06/19 09:55:49;;;;;;;5.57;1.10;;;;;;;;;;4931817;29;20044;-64
2022/06/19 09:58:18;;;;;;;5.87;0.90;;;;;;;;;;4922960;29;20056;-66
2022/06/19 10:00:46;;;;;;;4.40;1.23;;;;;;;;;;4931034;29;20067;-67
2022/06/19 10:03:13;;;;;;;;;;;;;;;;;;4926163;29;20066;-64
2022/06/19 10:05:44;;;;;;;3.55;0.90;;;;;;;;;;4929890;29;19933;-64
2022/06/19 10:08:12;;;;;;;10.15;1.23;;;;;;;;;;4924054;29;20048;-66
2022/06/19 10:10:41;;;;;;;5.22;0.82;;;;;;;;;;4930530;29;20058;-64
2022/06/19 10:13:10;;;;;;;3.47;0.68;;;;;;;;;;4925256;29;20051;-66
2022/06/19 10:15:38;;;;;;;4.70;1.10;;;;;;;;;;4928911;29;20054;-67
2022/06/19 10:18:08;;;;;;;3.95;0.70;;;;;;;;;;4929842;29;20055;-66
2022/06/19 10:20:39;;;;;;;6.20;1.10;;;;;;;;;;4927690;29;20078;-67
2022/06/19 10:23:14;;;;;;;3.92;0.85;;;;;;;;;;4927313;29;20055;-64
2022/06/19 10:25:45;;;;;;;3.13;0.80;;;;;;;;;;4924446;29;20048;-64
2022/06/19 10:28:18;;;;;;;5.43;1.08;;;;;;;;;;4932508;28;20090;-68
2022/06/19 10:30:50;;;;;;;4.88;1.10;;;;;;;;;;4922058;29;20063;-68
2022/06/19 10:33:22;;;;;;;5.63;1.17;;;;;;;;;;4931591;29;20058;-67
2022/06/19 10:35:50;;;;;;;2.70;0.95;;;;;;;;;;4917702;29;20051;-65
2022/06/19 10:38:33;;;;;;;7.25;1.00;;;;;;;;;;4929291;29;20142;-64
2022/06/19 10:41:03;;;;;;;4.47;1.10;;;;;;;;;;4911342;29;20055;-61
2022/06/19 10:43:45;;;;;;;6.38;1.67;;;;;;;;;;4914891;29;20139;-58
2022/06/19 10:46:15;;;;;;;8.35;2.10;;;;;;;;;;4925070;29;20166;-62
2022/06/19 10:48:41;;;;;;;;;;;;;;;;;;4933204;29;20066;-68
2022/06/19 10:51:30;;;;;;;8.57;2.28;;;;;;;;;;4920984;29;19927;-66
2022/06/19 10:54:06;;;;;;;6.43;2.55;;;;;;;;;;4914113;29;20055;-65
2022/06/19 10:56:36;;;;;;;9.65;1.85;;;;;;;;;;4922749;29;20055;-69
2022/06/19 10:59:04;;;;;;;13.77;2.22;;;;;;;;;;4933418;29;20142;-65
2022/06/19 11:04:19;;;;;;;6.63;1.77;;;;;;;;;;4914253;29;20296;-66
2022/06/19 11:06:48;;;;;;;11.77;1.83;;;;;;;;;;4909458;29;20047;-65
2022/06/19 11:09:14;;;;;;;;;;;;;;;;;;4907394;29;20047;-69
2022/06/19 11:11:44;;;;;;;10.90;1.98;;;;;;;;;;4910138;29;19927;-67
2022/06/19 11:14:12;;;;;;;7.50;1.80;;;;;;;;;;4914809;29;20088;-67
2022/06/19 11:16:52;;;;;;;7.63;1.55;;;;;;;;;;4919579;29;20051;-65
2022/06/19 11:19:31;;;;;;;8.48;1.90;;;;;;;;;;4934147;29;20062;-65
2022/06/19 11:21:57;;;;;;;8.02;1.80;;;;;;;;;;4928974;29;20050;-66
2022/06/19 11:24:26;;;;;;;5.30;1.60;;;;;;;;;;4934681;29;20047;-66
2022/06/19 11:26:56;;;;;;;9.20;1.35;;;;;;;;;;4928324;29;20082;-68
2022/06/19 11:29:25;;;;;;;6.47;1.63;;;;;;;;;;4930975;29;20055;-68
2022/06/19 11:32:05;;;;;;;7.50;1.80;;;;;;;;;;4927918;29;20082;-65
2022/06/19 11:34:44;;;;;;;6.47;1.80;;;;;;;;;;4932321;29;20142;-70
2022/06/19 11:37:13;;;;;;;6.22;1.52;;;;;;;;;;4927795;29;20055;-70
2022/06/19 11:39:41;;;;;;;;;;;;;;;;;;4933523;29;20153;-68
2022/06/19 11:42:26;;;;;;;5.50;1.30;;;;;;;;;;4943512;28;19923;-67
2022/06/19 11:44:54;;;;;;;6.70;1.20;;;;;;;;;;4949429;28;20066;-69
2022/06/19 11:47:25;;;;;;;10.80;1.77;;;;;;;;;;4925439;29;20058;-66
2022/06/19 11:50:07;;;;;;;7.20;1.15;;;;;;;;;;4913558;29;20069;-68
2022/06/19 11:52:34;;;;;;;6.43;1.30;;;;;;;;;;4909768;29;20059;-70
2022/06/19 11:55:01;;;;;;;5.20;1.15;;;;;;;;;;4915035;29;20126;-68
2022/06/19 11:57:31;;;;;;;7.50;1.38;;;;;;;;;;4910191;29;20058;-69
2022/06/19 11:59:59;;;;;;;11.13;1.63;;;;;;;;;;4914076;29;20052;-70
2022/06/19 12:02:28;;;;;;;8.57;1.40;;;;;;;;;;4908897;29;20093;-65
2022/06/19 12:04:56;;;;;;;3.78;0.98;;;;;;;;;;4912940;29;20060;-66
2022/06/19 12:07:24;;;;;;;7.38;1.77;;;;;;;;;;4913109;29;20060;-68
2022/06/19 12:09:55;;;;;;;7.03;1.45;;;;;;;;;;4929738;29;20076;-69
2022/06/19 12:12:22;;;;;;;5.75;1.30;;;;;;;;;;4932341;29;20047;-66
2022/06/19 12:14:55;;;;;;;3.38;1.15;;;;;;;;;;4926834;29;20057;-66
2022/06/19 12:17:25;;;;;;;8.82;1.50;;;;;;;;;;4932231;29;20055;-67
2022/06/19 12:19:56;;;;;;;5.57;1.17;;;;;;;;;;4925557;29;20126;-66
2022/06/19 12:22:27;;;;;;;7.43;1.80;;;;;;;;;;4920409;29;20175;-70
2022/06/19 12:24:56;;;;;;;7.38;1.67;;;;;;;;;;4908629;29;20063;-67
2022/06/19 12:27:27;;;;;;;4.30;1.45;;;;;;;;;;4910681;29;20217;-67
2022/06/19 12:29:56;;;;;;;5.18;1.20;;;;;;;;;;4908004;29;20095;-66
2022/06/19 12:32:27;;;;;;;4.10;1.27;;;;;;;;;;4912527;29;20138;-67
2022/06/19 12:34:56;;;;;;;8.23;1.10;;;;;;;;;;4908154;29;20157;-65
2022/06/19 12:37:23;;;;;;;;;;;;;;;;;;4914337;29;20126;-67
2022/06/19 12:39:50;;;;;;;4.00;1.05;;;;;;;;;;4908614;29;19930;-67
2022/06/19 12:42:22;;;;;;;7.68;1.13;;;;;;;;;;4914806;29;20071;-69
2022/06/19 12:44:58;;;;;;;6.28;1.10;;;;;;;;;;4919420;29;20055;-67
2022/06/19 12:47:30;;;;;;;8.35;1.10;;;;;;;;;;4912767;29;20106;-71
2022/06/19 12:50:16;;;;;;;8.95;1.27;;;;;;;;;;4908156;29;20044;-66
2022/06/19 12:52:46;;;;;;;4.90;1.00;;;;;;;;;;4914679;29;20047;-67
2022/06/19 12:55:27;;;;;;;2.70;0.82;;;;;;;;;;4918669;29;20056;-64
2022/06/19 12:58:04;;;;;;;2.60;0.90;;;;;;;;;;4915606;29;20052;-66
2022/06/19 13:00:39;;;;;;;11.75;1.50;;;;;;;;;;4919978;29;20051;-64
2022/06/19 13:03:21;;;;;;;2.47;0.90;;;;;;;;;;4936950;29;20070;-65
2022/06/19 13:05:56;;;;;;;4.85;1.10;;;;;;;;;;4925378;29;20059;-68
2022/06/19 13:08:28;;;;;;;4.13;1.13;;;;;;;;;;4935060;29;20068;-67
2022/06/19 13:11:00;;;;;;;10.93;1.33;;;;;;;;;;4927439;29;20055;-65
2022/06/19 13:13:42;;;;;;;6.78;0.90;;;;;;;;;;4935816;29;20083;-66
2022/06/19 13:16:12;;;;;;;3.15;0.90;;;;;;;;;;4922076;29;20130;-67
2022/06/19 13:18:42;;;;;;;4.72;1.27;;;;;;;;;;4916733;29;20063;-67
2022/06/19 13:21:14;;;;;;;5.05;1.00;;;;;;;;;;4917584;29;20079;-68
2022/06/19 13:23:46;;;;;;;2.58;0.82;;;;;;;;;;4935024;29;20071;-68
2022/06/19 13:29:05;;;;;;;6.00;0.88;;;;;;;;;;4933769;29;20051;-64
2022/06/19 13:31:35;;;;;;;5.95;0.90;;;;;;;;;;4919957;29;20094;-63
2022/06/19 13:34:10;;;;;;;4.35;1.00;;;;;;;;;;4915485;29;20043;-63
2022/06/19 13:36:43;;;;;;;3.80;0.90;;;;;;;;;;4911191;29;20048;-63
2022/06/19 13:39:19;;;;;;;6.38;0.85;;;;;;;;;;4916440;29;20051;-63
2022/06/19 13:41:50;;;;;;;7.10;1.00;;;;;;;;;;4916314;29;20047;-64
2022/06/19 13:44:25;;;;;;;5.32;1.05;;;;;;;;;;4935857;29;20090;-63
2022/06/19 13:46:56;;;;;;;6.80;1.20;;;;;;;;;;4926376;29;20054;-71
2022/06/19 13:49:29;;;;;;;4.68;0.70;;;;;;;;;;4916305;29;20048;-65
2022/06/19 13:52:14;;;;;;;8.50;1.38;;;;;;;;;;4909619;29;20055;-67
2022/06/19 13:54:44;;;;;;;3.22;0.80;;;;;;;;;;4890297;29;20059;-65
2022/06/19 13:57:15;;;;;;;2.28;0.80;;;;;;;;;;4912414;29;20064;-64
2022/06/19 13:59:54;;;;;;;7.55;0.90;;;;;;;;;;4916517;29;20059;-68
2022/06/19 14:02:25;;;;;;;11.15;1.02;;;;;;;;;;4914390;29;20055;-64
2022/06/19 14:04:59;;;;;;;6.20;1.10;;;;;;;;;;4934265;29;20129;-71
2022/06/19 14:07:40;;;;;;;8.27;1.58;;;;;;;;;;4926262;29;20119;-68
2022/06/19 14:10:14;;;;;;;5.40;1.27;;;;;;;;;;4902844;29;20052;-65
2022/06/19 14:12:43;;;;;;;5.75;1.13;;;;;;;;;;4913310;29;20047;-67
2022/06/19 14:15:13;;;;;;;5.95;1.00;;;;;;;;;;4934446;29;20055;-64
2022/06/19 14:17:43;;;;;;;3.72;0.75;;;;;;;;;;4928857;29;20051;-69
2022/06/19 14:20:15;;;;;;;2.95;0.73;;;;;;;;;;4935342;29;20058;-65
2022/06/19 14:22:45;;;;;;;5.50;1.20;;;;;;;;;;4929900;29;20117;-63
2022/06/19 14:25:18;;;;;;;3.30;0.80;;;;;;;;;;4914794;29;20103;-68
2022/06/19 14:27:58;;;;;;;6.25;1.10;;;;;;;;;;4915494;29;20060;-65
2022/06/19 14:30:26;;;;;;;9.27;1.17;;;;;;;;;;4941687;29;20057;-69
2022/06/19 14:32:55;;;;;;;3.75;0.82;;;;;;;;;;4932035;29;20145;-63
2022/06/19 14:35:25;;;;;;;6.20;1.00;;;;;;;;;;4925240;29;20061;-68
2022/06/19 14:37:53;;;;;;;6.22;1.25;;;;;;;;;;4928593;29;20047;-69
2022/06/19 14:40:40;;;;;;;4.63;0.80;;;;;;;;;;4923931;29;20054;-70
2022/06/19 14:43:17;;;;;;;4.82;0.90;;;;;;;;;;4927818;29;20481;-64
2022/06/19 14:45:45;;;;;;;6.05;0.98;;;;;;;;;;4922623;29;20055;-67
2022/06/19 14:48:15;;;;;;;3.40;0.80;;;;;;;;;;4931432;29;20058;-63
2022/06/19 14:50:52;;;;;;;2.92;0.85;;;;;;;;;;4926807;29;20059;-65
2022/06/19 14:53:28;;;;;;;3.90;0.82;;;;;;;;;;4929272;29;20067;-64
2022/06/19 14:56:10;;;;;;;4.93;1.10;;;;;;;;;;4924940;29;20051;-64
2022/06/19 14:58:39;;;;;;;3.67;1.30;;;;;;;;;;4930843;29;20067;-66
2022/06/19 15:01:06;;;;;;;7.57;1.50;;;;;;;;;;4923289;29;20095;-64
2022/06/19 15:03:39;;;;;;;4.50;0.82;;;;;;;;;;4930422;29;20050;-64
2022/06/19 15:06:11;;;;;;;4.47;1.15;;;;;;;;;;4923113;29;20063;-68
2022/06/19 15:08:39;;;;;;;1.95;0.80;;;;;;;;;;4931326;29;20073;-65
2022/06/19 15:11:06;;;;;;;;;;;;;;;;;;4941375;28;20058;-63
2022/06/19 15:13:36;;;;;;;2.28;0.70;;;;;;;;;;4927660;29;20013;-65
2022/06/19 15:16:12;;;;;;;3.10;0.93;;;;;;;;;;4923897;29;20051;-64